Alexander Maersk — OZRC2 — position and weather

sailwx.info

Track history (hours):
 
Tides and Currents Weather Stations Pressure Air Temp Water Temp Dewpoint Dewpoint Depression Visibility Wind Speed Wind Dir Waves Ship Positions

Alexander Maersk

Last reported at 2014-Oct-20 13:33 UTC. Time now 2014-Oct-26 05:05 UTC.
Position N 35°51' E 014°40'.

Length 155 m; draft 7.5 m.

Type: Ship. MMSI: 219470000.

Date/timePositionNaut miles runAvg speedWind from/ knotsBaromVisibWave heightAir tempDewpointWater temp
2014-Oct-20 13:33N 35°51' E 014°40'0 0.0
2014-Oct-20 07:30N 35°51' E 014°40'0 0.0
2014-Oct-20 06:15N 35°51' E 014°40'0 0.0
2014-Oct-20 03:33N 35°51' E 014°40'0 0.0
2014-Oct-19 05:21N 35°51' E 014°40'0 0.0
2014-Oct-19 04:27N 35°51' E 014°40'0 0.0
2014-Oct-19 03:12N 35°51' E 014°40'0 0.0
2014-Oct-19 02:33N 35°51' E 014°40'0 0.0
2014-Oct-19 01:33N 35°51' E 014°40'0 0.0
2014-Oct-19 00:21N 35°51' E 014°40'0 0.0
2014-Oct-18 22:15N 35°51' E 014°40'0 0.0
2014-Oct-18 21:24N 35°51' E 014°40'0 0.0
2014-Oct-18 20:30N 35°51' E 014°40'0 0.0
2014-Oct-18 19:33N 35°51' E 014°40'0 0.0
2014-Oct-18 18:30N 35°51' E 014°40'0 0.0
2014-Oct-18 17:33N 35°51' E 014°40'0 0.0
2014-Oct-18 16:33N 35°51' E 014°40'0 0.0
2014-Oct-18 15:27N 35°51' E 014°40'0 0.1
2014-Oct-18 14:33N 35°51' E 014°40'0 0.0
2014-Oct-18 13:33N 35°51' E 014°40'0 0.0
2014-Oct-18 12:33N 35°51' E 014°40'0 0.0
2014-Oct-18 11:33N 35°51' E 014°40'0 0.1
2014-Oct-18 10:33N 35°51' E 014°40'0 0.0
2014-Oct-18 09:33N 35°51' E 014°40'0 0.0
2014-Oct-18 08:33N 35°51' E 014°40'0 0.0
2014-Oct-18 07:33N 35°51' E 014°40'0 0.0
2014-Oct-18 06:33N 35°51' E 014°40'0 0.0
2014-Oct-18 05:33N 35°51' E 014°40'0 0.0
2014-Oct-18 04:33N 35°51' E 014°40'0 0.0
2014-Oct-18 03:33N 35°51' E 014°40'0 0.0
2014-Oct-18 02:33N 35°51' E 014°40'0 0.0
2014-Oct-18 01:33N 35°51' E 014°40'0 0.0
2014-Oct-18 00:33N 35°51' E 014°40'0 0.0
2014-Oct-17 23:33N 35°51' E 014°40'0 0.0
2014-Oct-17 22:33N 35°51' E 014°40'2 2.4
2014-Oct-17 21:33N 35°49' E 014°39'9 9.3
2014-Oct-17 20:33N 35°44' E 014°29'9 9.4
2014-Oct-17 19:33N 35°41' E 014°18'9 9.4
2014-Oct-17 18:33N 35°37' E 014°08'9 9.4
2014-Oct-17 17:33N 35°33' E 013°58'10 9.5
2014-Oct-17 16:33N 35°28' E 013°47'9 9.4
2014-Oct-17 15:33N 35°24' E 013°37'7 7.1
2014-Oct-17 14:33N 35°21' E 013°29'9 9.2
2014-Oct-17 13:33N 35°17' E 013°19'10 9.6
2014-Oct-17 12:33N 35°13' E 013°09'10 9.7
2014-Oct-17 11:33N 35°08' E 012°58'9 9.4
2014-Oct-17 10:33N 35°04' E 012°48'9 9.2
2014-Oct-17 09:33N 35°00' E 012°37'11 9.1
2014-Oct-17 08:22N 34°56' E 012°26'7 9.2
2014-Oct-17 07:33N 34°52' E 012°18'9 9.1
2014-Oct-17 06:33N 34°48' E 012°08'9 8.9
2014-Oct-17 05:33N 34°44' E 011°58'9 8.8
2014-Oct-17 04:33N 34°40' E 011°48'13 8.7
2014-Oct-17 03:07N 34°34' E 011°35'5 8.9
2014-Oct-17 02:33N 34°32' E 011°29'9 9.1
2014-Oct-17 01:33N 34°28' E 011°19'31 0.6
2014-Oct-14 23:26N 34°44' E 010°46'5 0.1
2014-Oct-13 04:11N 34°40' E 010°50'0 0.0
2014-Oct-12 09:29N 34°40' E 010°51'0 0.0
2014-Oct-12 05:32N 34°40' E 010°51'0 0.0
2014-Oct-12 04:20N 34°40' E 010°51'0 0.0
2014-Oct-11 21:20N 34°40' E 010°51'0 0.0
2014-Oct-11 19:32N 34°40' E 010°51'0 0.0
2014-Oct-11 17:32N 34°40' E 010°51'18 1.1
2014-Oct-11 00:14N 34°22' E 010°55'20 9.8
2014-Oct-10 22:08N 34°10' E 011°15'6 9.7
2014-Oct-10 21:33N 34°07' E 011°20'10 9.5
2014-Oct-10 20:31N 34°01' E 011°30'29 9.6
2014-Oct-10 17:31N 33°48' E 012°02'31 9.7
2014-Oct-10 14:20N 33°35' E 012°35'  
Track history (hours):
 
Tides and Currents Weather Stations Pressure Air Temp Water Temp Dewpoint Dewpoint Depression Visibility Wind Speed Wind Dir Waves Ship Positions

Alexander Maersk

Last reported at 2014-Oct-20 13:33 UTC. Time now 2014-Oct-26 05:05 UTC.
Position N 35°51' E 014°40'.

Length 155 m; draft 7.5 m.

Type: Ship. MMSI: 219470000.

Date/timePositionNaut miles runAvg speedWind from/ knotsBaromVisibWave heightAir tempDewpointWater temp
2014-Oct-20 13:33N 35°51' E 014°40'0 0.0
2014-Oct-20 07:30N 35°51' E 014°40'0 0.0
2014-Oct-20 06:15N 35°51' E 014°40'0 0.0
2014-Oct-20 03:33N 35°51' E 014°40'0 0.0
2014-Oct-19 05:21N 35°51' E 014°40'0 0.0
2014-Oct-19 04:27N 35°51' E 014°40'0 0.0
2014-Oct-19 03:12N 35°51' E 014°40'0 0.0
2014-Oct-19 02:33N 35°51' E 014°40'0 0.0
2014-Oct-19 01:33N 35°51' E 014°40'0 0.0
2014-Oct-19 00:21N 35°51' E 014°40'0 0.0
2014-Oct-18 22:15N 35°51' E 014°40'0 0.0
2014-Oct-18 21:24N 35°51' E 014°40'0 0.0
2014-Oct-18 20:30N 35°51' E 014°40'0 0.0
2014-Oct-18 19:33N 35°51' E 014°40'0 0.0
2014-Oct-18 18:30N 35°51' E 014°40'0 0.0
2014-Oct-18 17:33N 35°51' E 014°40'0 0.0
2014-Oct-18 16:33N 35°51' E 014°40'0 0.0
2014-Oct-18 15:27N 35°51' E 014°40'0 0.1
2014-Oct-18 14:33N 35°51' E 014°40'0 0.0
2014-Oct-18 13:33N 35°51' E 014°40'0 0.0
2014-Oct-18 12:33N 35°51' E 014°40'0 0.0
2014-Oct-18 11:33N 35°51' E 014°40'0 0.1
2014-Oct-18 10:33N 35°51' E 014°40'0 0.0
2014-Oct-18 09:33N 35°51' E 014°40'0 0.0
2014-Oct-18 08:33N 35°51' E 014°40'0 0.0
2014-Oct-18 07:33N 35°51' E 014°40'0 0.0
2014-Oct-18 06:33N 35°51' E 014°40'0 0.0
2014-Oct-18 05:33N 35°51' E 014°40'0 0.0
2014-Oct-18 04:33N 35°51' E 014°40'0 0.0
2014-Oct-18 03:33N 35°51' E 014°40'0 0.0
2014-Oct-18 02:33N 35°51' E 014°40'0 0.0
2014-Oct-18 01:33N 35°51' E 014°40'0 0.0
2014-Oct-18 00:33N 35°51' E 014°40'0 0.0
2014-Oct-17 23:33N 35°51' E 014°40'0 0.0
2014-Oct-17 22:33N 35°51' E 014°40'2 2.4
2014-Oct-17 21:33N 35°49' E 014°39'9 9.3
2014-Oct-17 20:33N 35°44' E 014°29'9 9.4
2014-Oct-17 19:33N 35°41' E 014°18'9 9.4
2014-Oct-17 18:33N 35°37' E 014°08'9 9.4
2014-Oct-17 17:33N 35°33' E 013°58'10 9.5
2014-Oct-17 16:33N 35°28' E 013°47'9 9.4
2014-Oct-17 15:33N 35°24' E 013°37'7 7.1
2014-Oct-17 14:33N 35°21' E 013°29'9 9.2
2014-Oct-17 13:33N 35°17' E 013°19'10 9.6
2014-Oct-17 12:33N 35°13' E 013°09'10 9.7
2014-Oct-17 11:33N 35°08' E 012°58'9 9.4
2014-Oct-17 10:33N 35°04' E 012°48'9 9.2
2014-Oct-17 09:33N 35°00' E 012°37'11 9.1
2014-Oct-17 08:22N 34°56' E 012°26'7 9.2
2014-Oct-17 07:33N 34°52' E 012°18'9 9.1
2014-Oct-17 06:33N 34°48' E 012°08'9 8.9
2014-Oct-17 05:33N 34°44' E 011°58'9 8.8
2014-Oct-17 04:33N 34°40' E 011°48'13 8.7
2014-Oct-17 03:07N 34°34' E 011°35'5 8.9
2014-Oct-17 02:33N 34°32' E 011°29'9 9.1
2014-Oct-17 01:33N 34°28' E 011°19'31 0.6
2014-Oct-14 23:26N 34°44' E 010°46'5 0.1
2014-Oct-13 04:11N 34°40' E 010°50'0 0.0
2014-Oct-12 09:29N 34°40' E 010°51'0 0.0
2014-Oct-12 05:32N 34°40' E 010°51'0 0.0
2014-Oct-12 04:20N 34°40' E 010°51'0 0.0
2014-Oct-11 21:20N 34°40' E 010°51'0 0.0
2014-Oct-11 19:32N 34°40' E 010°51'0 0.0
2014-Oct-11 17:32N 34°40' E 010°51'18 1.1
2014-Oct-11 00:14N 34°22' E 010°55'20 9.8
2014-Oct-10 22:08N 34°10' E 011°15'6 9.7
2014-Oct-10 21:33N 34°07' E 011°20'10 9.5
2014-Oct-10 20:31N 34°01' E 011°30'29 9.6
2014-Oct-10 17:31N 33°48' E 012°02'31 9.7
2014-Oct-10 14:20N 33°35' E 012°35'  

Dump ship's entire track history